Portada
METAR-TAF:

METAR-TAF

Aeropuertos :

Pointe-Noire, Congo

Aeropuerto de Pointe-Noire

latitud: 04-49S, longitud: 011-54E, altitud: 17 m

Observación

El informe se hizo hace 40 minutos, a las 23:00 UTC
Viento 4 kt del sur
Temperatura 24°C
Humedad 89%
Presión 1013 hPa
Visibilidad: 8000 m
Nubes dispersas a una altura de 1000 ft

METAR: FCPP 202300Z 19004KT 8000 SCT010 24/22 Q1013 NOSIG

Hora: 00:40 (23:40 UTC)

Pronóstico

El informe se hizo hace 40 minutos, a las 23:00 UTC
Pronóstico válido del 21 a las 00 UTC al 21 a las 24 UTC
Viento 8 kt del sur
Visibilidad: 8000 m
Nubes dispersas a una altura de 1000 ft
Cielo cubierto a una altura de 2000 ft

TAF: FCPP 202300Z 2100/2124 19008KT 8000 SCT010 OVC020

Observaciones y pronósticos meteorológicos de más de 4000 aeropuertos (mensajes METAR y TAF).

Los puntos amarillos y rojos representan las estaciones disponibles.

Ponga el ratón en el punto deseado para ver el nombre de la estación.

Haga clic para ver las observaciones y los pronósticos meteorológicos.

Para cambiar el mapa : haga clic en los botones verdes con una cruz de color negro para hacer un zoom, en el botón verde con un guión para alejar o en las flechas verdes para mapas adyacentes.


METAR-TAF: